CES5415 ZSSS-ZUUU
Flight info
| Callsign | CES5415 |
|---|---|
| Flight time | 2h 39m |
| Altitude | 34100 |
| Route | PIK71D/36L PIKAS G330 UNTAN G345 OLRIS R343 MADUK W51 LEGIV W164 ADGOL W50 XSH W80 URGEG W231 EKOKA |
| Aircraft | A346/H-SDE2E3FGHIJ3J4J5M1RWXY/LB1D1 |
Departure
| Time | 2026-05-07 08:58 |
|---|---|
| Airport | Shanghai Hongqiao International Airport (ZSSS) |
Arrival
| Time | 2026-05-07 11:38 |
|---|---|
| Airport | Chengdu Shuangliu International Airport (ZUUU) |
| Time | Latitude | Longitude | Altitude | Speed | Heading |
|---|---|---|---|---|---|
| 2026-05-07 08:58 | 31.30030 | 121.26844 | 3017 ft | 247 kts | 323° |
| 2026-05-07 08:58 | 31.31394 | 121.25619 | 3019 ft | 246 kts | 323° |
| 2026-05-07 08:59 | 31.32760 | 121.24408 | 3018 ft | 247 kts | 324° |
| 2026-05-07 08:59 | 31.34137 | 121.23190 | 3008 ft | 249 kts | 324° |
| 2026-05-07 08:59 | 31.35543 | 121.21954 | 3023 ft | 253 kts | 324° |
| 2026-05-07 08:59 | 31.36959 | 121.20705 | 3069 ft | 256 kts | 323° |
| 2026-05-07 09:00 | 31.38424 | 121.19422 | 3661 ft | 266 kts | 323° |
| 2026-05-07 09:00 | 31.39857 | 121.18088 | 4847 ft | 260 kts | 316° |
| 2026-05-07 09:00 | 31.41164 | 121.16626 | 5857 ft | 261 kts | 311° |
| 2026-05-07 09:00 | 31.42403 | 121.15044 | 6746 ft | 265 kts | 310° |
| 2026-05-07 09:01 | 31.43655 | 121.13426 | 7577 ft | 270 kts | 310° |
| 2026-05-07 09:01 | 31.45050 | 121.11922 | 8462 ft | 275 kts | 320° |
| 2026-05-07 09:01 | 31.46710 | 121.10770 | 9443 ft | 279 kts | 330° |
| 2026-05-07 09:01 | 31.48476 | 121.09803 | 10299 ft | 282 kts | 332° |
| 2026-05-07 09:02 | 31.50308 | 121.08834 | 10875 ft | 296 kts | 332° |
| 2026-05-07 09:02 | 31.52242 | 121.07812 | 11298 ft | 314 kts | 332° |
| 2026-05-07 09:02 | 31.54288 | 121.06728 | 11711 ft | 332 kts | 332° |
| 2026-05-07 09:02 | 31.56452 | 121.05580 | 12110 ft | 350 kts | 332° |
| 2026-05-07 09:03 | 31.58728 | 121.04372 | 12504 ft | 367 kts | 332° |
| 2026-05-07 09:03 | 31.61088 | 121.03119 | 13187 ft | 375 kts | 332° |
| 2026-05-07 09:03 | 31.63469 | 121.01857 | 14041 ft | 377 kts | 332° |
| 2026-05-07 09:03 | 31.65869 | 121.00584 | 14767 ft | 380 kts | 332° |
| 2026-05-07 09:04 | 31.68311 | 120.99285 | 15426 ft | 386 kts | 332° |
| 2026-05-07 09:04 | 31.70743 | 120.97988 | 16060 ft | 392 kts | 332° |
| 2026-05-07 09:04 | 31.73264 | 120.96644 | 16702 ft | 397 kts | 332° |
| 2026-05-07 09:04 | 31.75819 | 120.95281 | 17356 ft | 401 kts | 331° |
| 2026-05-07 09:05 | 31.78371 | 120.93918 | 17988 ft | 405 kts | 331° |
| 2026-05-07 09:05 | 31.80952 | 120.92539 | 18572 ft | 409 kts | 331° |
| 2026-05-07 09:05 | 31.83546 | 120.91152 | 19085 ft | 412 kts | 331° |
| 2026-05-07 09:05 | 31.86171 | 120.89746 | 19624 ft | 415 kts | 330° |
| 2026-05-07 09:06 | 31.88811 | 120.88333 | 20153 ft | 419 kts | 330° |
| 2026-05-07 09:06 | 31.91475 | 120.86905 | 20677 ft | 422 kts | 330° |
| 2026-05-07 09:06 | 31.94148 | 120.85471 | 21217 ft | 425 kts | 330° |
| 2026-05-07 09:06 | 31.96851 | 120.84021 | 21755 ft | 428 kts | 330° |
| 2026-05-07 09:07 | 31.99575 | 120.82558 | 22305 ft | 431 kts | 329° |
| 2026-05-07 09:07 | 32.02305 | 120.81090 | 22824 ft | 434 kts | 329° |
| 2026-05-07 09:07 | 32.05062 | 120.79604 | 23307 ft | 437 kts | 329° |
| 2026-05-07 09:07 | 32.07841 | 120.78106 | 23737 ft | 441 kts | 329° |
| 2026-05-07 09:08 | 32.10643 | 120.76593 | 24127 ft | 444 kts | 329° |
| 2026-05-07 09:08 | 32.13255 | 120.74721 | 24503 ft | 437 kts | 315° |
| 2026-05-07 09:08 | 32.15286 | 120.72117 | 24951 ft | 428 kts | 301° |
| 2026-05-07 09:08 | 32.16650 | 120.69011 | 25393 ft | 423 kts | 287° |
| 2026-05-07 09:09 | 32.17292 | 120.65635 | 25804 ft | 422 kts | 275° |
| 2026-05-07 09:09 | 32.17595 | 120.62167 | 26231 ft | 425 kts | 274° |
| 2026-05-07 09:09 | 32.17895 | 120.58664 | 26553 ft | 431 kts | 274° |
| 2026-05-07 09:09 | 32.18190 | 120.55169 | 26905 ft | 434 kts | 274° |
| 2026-05-07 09:10 | 32.18489 | 120.51594 | 27321 ft | 437 kts | 274° |
| 2026-05-07 09:10 | 32.18787 | 120.48009 | 27807 ft | 438 kts | 274° |
| 2026-05-07 09:10 | 32.19083 | 120.44438 | 28443 ft | 435 kts | 274° |
| 2026-05-07 09:10 | 32.19376 | 120.40886 | 29100 ft | 433 kts | 274° |
| 2026-05-07 09:11 | 32.19554 | 120.37336 | 29755 ft | 431 kts | 270° |
| 2026-05-07 09:11 | 32.19457 | 120.33808 | 30341 ft | 429 kts | 265° |
| 2026-05-07 09:11 | 32.19099 | 120.30306 | 30866 ft | 428 kts | 261° |
| 2026-05-07 09:11 | 32.18481 | 120.26858 | 31411 ft | 427 kts | 256° |
| 2026-05-07 09:12 | 32.17624 | 120.23545 | 31951 ft | 426 kts | 252° |
| 2026-05-07 09:12 | 32.16510 | 120.20290 | 32493 ft | 426 kts | 247° |
| 2026-05-07 09:12 | 32.15176 | 120.17154 | 32974 ft | 427 kts | 244° |
| 2026-05-07 09:12 | 32.13775 | 120.14046 | 33360 ft | 429 kts | 244° |
| 2026-05-07 09:13 | 32.12359 | 120.10937 | 34324 ft | 436 kts | 244° |
| 2026-05-07 09:13 | 32.10910 | 120.07753 | 34180 ft | 444 kts | 240° |
| 2026-05-07 09:13 | 32.09451 | 120.04472 | 34011 ft | 457 kts | 237° |
| 2026-05-07 09:13 | 32.07884 | 120.01191 | 33468 ft | 453 kts | 242° |
| 2026-05-07 09:14 | 32.06371 | 119.98008 | 33856 ft | 439 kts | 244° |
| 2026-05-07 09:14 | 32.04951 | 119.94884 | 33983 ft | 435 kts | 244° |
| 2026-05-07 09:14 | 32.02123 | 119.88590 | 34057 ft | 433 kts | 244° |
| 2026-05-07 09:15 | 31.99297 | 119.82312 | 34090 ft | 432 kts | 244° |
| 2026-05-07 09:15 | 31.96465 | 119.76067 | 34066 ft | 431 kts | 245° |
| 2026-05-07 09:16 | 31.93645 | 119.69828 | 34076 ft | 430 kts | 245° |
| 2026-05-07 09:16 | 31.90951 | 119.63531 | 34078 ft | 430 kts | 246° |
| 2026-05-07 09:17 | 31.88266 | 119.57227 | 34074 ft | 430 kts | 246° |
| 2026-05-07 09:17 | 31.85583 | 119.50974 | 34073 ft | 430 kts | 246° |
| 2026-05-07 09:18 | 31.82882 | 119.44697 | 34060 ft | 429 kts | 246° |
| 2026-05-07 09:18 | 31.80174 | 119.38415 | 34066 ft | 429 kts | 246° |
| 2026-05-07 09:19 | 31.77434 | 119.32162 | 34066 ft | 429 kts | 246° |
| 2026-05-07 09:19 | 31.74703 | 119.25962 | 34069 ft | 429 kts | 246° |
| 2026-05-07 09:20 | 31.71957 | 119.19740 | 34067 ft | 428 kts | 246° |
| 2026-05-07 09:20 | 31.69214 | 119.13525 | 34070 ft | 428 kts | 246° |
| 2026-05-07 09:21 | 31.66719 | 119.07165 | 34068 ft | 424 kts | 254° |
| 2026-05-07 09:21 | 31.65614 | 119.00398 | 34087 ft | 422 kts | 268° |
| 2026-05-07 09:22 | 31.65857 | 118.93531 | 34092 ft | 421 kts | 274° |
| 2026-05-07 09:22 | 31.66355 | 118.86668 | 34092 ft | 421 kts | 275° |
| 2026-05-07 09:23 | 31.66861 | 118.79816 | 34085 ft | 421 kts | 275° |
| 2026-05-07 09:23 | 31.67366 | 118.72965 | 34078 ft | 421 kts | 275° |
| 2026-05-07 09:24 | 31.67869 | 118.66114 | 34083 ft | 421 kts | 274° |
| 2026-05-07 09:24 | 31.68369 | 118.59250 | 34088 ft | 421 kts | 274° |
| 2026-05-07 09:25 | 31.68864 | 118.52397 | 34080 ft | 421 kts | 274° |
| 2026-05-07 09:25 | 31.69352 | 118.45581 | 34089 ft | 421 kts | 274° |
| 2026-05-07 09:26 | 31.69840 | 118.38722 | 34091 ft | 421 kts | 274° |
| 2026-05-07 09:26 | 31.70323 | 118.31862 | 34099 ft | 420 kts | 274° |
| 2026-05-07 09:27 | 31.70803 | 118.24997 | 34092 ft | 420 kts | 274° |
| 2026-05-07 09:28 | 31.71182 | 118.14728 | 34096 ft | 420 kts | 269° |
| 2026-05-07 09:28 | 31.70776 | 118.07878 | 34101 ft | 420 kts | 264° |
| 2026-05-07 09:29 | 31.69819 | 118.01072 | 34109 ft | 422 kts | 259° |
| 2026-05-07 09:29 | 31.68475 | 117.94374 | 34109 ft | 422 kts | 258° |
| 2026-05-07 09:30 | 31.67094 | 117.87626 | 34102 ft | 421 kts | 258° |
| 2026-05-07 09:30 | 31.65716 | 117.80943 | 34110 ft | 422 kts | 258° |
| 2026-05-07 09:31 | 31.64332 | 117.74263 | 34108 ft | 422 kts | 258° |
| 2026-05-07 09:31 | 31.62939 | 117.67572 | 34111 ft | 422 kts | 258° |
| 2026-05-07 09:32 | 31.61543 | 117.60881 | 34114 ft | 422 kts | 258° |
| 2026-05-07 09:32 | 31.60249 | 117.54143 | 34121 ft | 421 kts | 260° |
| 2026-05-07 09:33 | 31.59051 | 117.47412 | 34105 ft | 421 kts | 260° |
| 2026-05-07 09:33 | 31.57844 | 117.40644 | 34120 ft | 422 kts | 260° |
| 2026-05-07 09:34 | 31.56644 | 117.33941 | 34129 ft | 422 kts | 260° |
| 2026-05-07 09:34 | 31.55435 | 117.27181 | 34128 ft | 422 kts | 260° |
| 2026-05-07 09:35 | 31.54247 | 117.20439 | 34133 ft | 422 kts | 260° |
| 2026-05-07 09:35 | 31.53053 | 117.13690 | 34137 ft | 422 kts | 260° |
| 2026-05-07 09:36 | 31.51854 | 117.06948 | 34140 ft | 422 kts | 260° |
| 2026-05-07 09:36 | 31.50852 | 117.01329 | 34144 ft | 422 kts | 260° |
| 2026-05-07 09:37 | 31.49584 | 116.94580 | 34147 ft | 422 kts | 257° |
| 2026-05-07 09:37 | 31.47746 | 116.88023 | 34128 ft | 424 kts | 251° |
| 2026-05-07 09:38 | 31.45243 | 116.81763 | 34148 ft | 427 kts | 245° |
| 2026-05-07 09:38 | 31.42076 | 116.75833 | 34150 ft | 431 kts | 239° |
| 2026-05-07 09:39 | 31.38453 | 116.70197 | 34157 ft | 431 kts | 238° |
| 2026-05-07 09:39 | 31.34824 | 116.64620 | 34159 ft | 431 kts | 237° |
| 2026-05-07 09:40 | 31.31179 | 116.59044 | 34161 ft | 431 kts | 237° |
| 2026-05-07 09:40 | 31.27530 | 116.53484 | 34152 ft | 431 kts | 238° |
| 2026-05-07 09:41 | 31.23881 | 116.47932 | 34163 ft | 431 kts | 238° |
| 2026-05-07 09:41 | 31.20222 | 116.42373 | 34161 ft | 431 kts | 238° |
| 2026-05-07 09:42 | 31.16568 | 116.36831 | 34174 ft | 430 kts | 238° |
| 2026-05-07 09:42 | 31.12910 | 116.31293 | 34157 ft | 430 kts | 238° |
| 2026-05-07 09:43 | 31.09256 | 116.25770 | 34171 ft | 430 kts | 238° |
| 2026-05-07 09:43 | 31.05607 | 116.20254 | 34159 ft | 430 kts | 238° |
| 2026-05-07 09:44 | 31.01937 | 116.14709 | 34150 ft | 430 kts | 238° |
| 2026-05-07 09:44 | 30.98295 | 116.09219 | 34144 ft | 430 kts | 238° |
| 2026-05-07 09:45 | 30.94634 | 116.03712 | 34151 ft | 430 kts | 238° |
| 2026-05-07 09:45 | 30.90956 | 115.98194 | 34126 ft | 428 kts | 238° |
| 2026-05-07 09:46 | 30.87312 | 115.92726 | 34139 ft | 428 kts | 238° |
| 2026-05-07 09:46 | 30.83658 | 115.87229 | 34119 ft | 426 kts | 238° |
| 2026-05-07 09:47 | 30.80060 | 115.81766 | 34119 ft | 427 kts | 238° |
| 2026-05-07 09:47 | 30.76453 | 115.76287 | 34108 ft | 427 kts | 238° |
| 2026-05-07 09:48 | 30.72825 | 115.70789 | 34093 ft | 426 kts | 238° |
| 2026-05-07 09:48 | 30.69221 | 115.65340 | 34092 ft | 425 kts | 238° |
| 2026-05-07 09:49 | 30.65631 | 115.59921 | 34097 ft | 423 kts | 238° |
| 2026-05-07 09:49 | 30.62020 | 115.54477 | 34091 ft | 423 kts | 238° |
| 2026-05-07 09:50 | 30.58439 | 115.49086 | 34088 ft | 423 kts | 238° |
| 2026-05-07 09:50 | 30.54827 | 115.43656 | 34086 ft | 423 kts | 238° |
| 2026-05-07 09:51 | 30.51246 | 115.38278 | 34074 ft | 421 kts | 238° |
| 2026-05-07 09:51 | 30.47995 | 115.32666 | 34072 ft | 415 kts | 247° |
| 2026-05-07 09:52 | 30.45852 | 115.26528 | 34080 ft | 410 kts | 257° |
| 2026-05-07 09:52 | 30.44830 | 115.20064 | 34084 ft | 408 kts | 266° |
| 2026-05-07 09:53 | 30.44952 | 115.13477 | 34085 ft | 408 kts | 275° |
| 2026-05-07 09:53 | 30.45581 | 115.06949 | 34085 ft | 408 kts | 276° |
| 2026-05-07 09:54 | 30.46244 | 115.00368 | 34093 ft | 408 kts | 276° |
| 2026-05-07 09:54 | 30.46907 | 114.93850 | 34089 ft | 409 kts | 276° |
| 2026-05-07 09:55 | 30.47575 | 114.87305 | 34085 ft | 409 kts | 276° |
| 2026-05-07 09:55 | 30.48245 | 114.80716 | 34087 ft | 409 kts | 276° |
| 2026-05-07 09:56 | 30.48906 | 114.74187 | 34095 ft | 409 kts | 276° |
| 2026-05-07 09:56 | 30.49566 | 114.67643 | 34092 ft | 409 kts | 276° |
| 2026-05-07 09:57 | 30.50225 | 114.61065 | 34099 ft | 409 kts | 276° |
| 2026-05-07 09:57 | 30.50877 | 114.54535 | 34099 ft | 409 kts | 276° |
| 2026-05-07 09:58 | 30.51530 | 114.47955 | 34105 ft | 409 kts | 276° |
| 2026-05-07 09:58 | 30.52175 | 114.41419 | 34107 ft | 409 kts | 276° |
| 2026-05-07 09:59 | 30.52819 | 114.34849 | 34115 ft | 410 kts | 276° |
| 2026-05-07 09:59 | 30.53463 | 114.28246 | 34113 ft | 410 kts | 276° |
| 2026-05-07 10:00 | 30.54099 | 114.21693 | 34113 ft | 410 kts | 276° |
| 2026-05-07 10:00 | 30.54726 | 114.15089 | 34114 ft | 410 kts | 276° |
| 2026-05-07 10:01 | 30.55355 | 114.08523 | 34102 ft | 411 kts | 276° |
| 2026-05-07 10:01 | 30.55994 | 114.01942 | 34119 ft | 410 kts | 276° |
| 2026-05-07 10:02 | 30.56609 | 113.95380 | 34121 ft | 410 kts | 275° |
| 2026-05-07 10:02 | 30.57220 | 113.88768 | 34125 ft | 410 kts | 275° |
| 2026-05-07 10:03 | 30.57561 | 113.82171 | 34129 ft | 410 kts | 271° |
| 2026-05-07 10:03 | 30.57425 | 113.75534 | 34130 ft | 410 kts | 268° |
| 2026-05-07 10:04 | 30.57195 | 113.68952 | 34129 ft | 410 kts | 268° |
| 2026-05-07 10:04 | 30.56952 | 113.62316 | 34129 ft | 409 kts | 268° |
| 2026-05-07 10:05 | 30.56704 | 113.55720 | 34132 ft | 410 kts | 268° |
| 2026-05-07 10:05 | 30.56449 | 113.49090 | 34140 ft | 410 kts | 268° |
| 2026-05-07 10:06 | 30.56193 | 113.42498 | 34146 ft | 410 kts | 268° |
| 2026-05-07 10:06 | 30.55930 | 113.35860 | 34144 ft | 410 kts | 268° |
| 2026-05-07 10:07 | 30.55665 | 113.29253 | 34144 ft | 410 kts | 268° |
| 2026-05-07 10:07 | 30.55395 | 113.22607 | 34146 ft | 410 kts | 268° |
| 2026-05-07 10:08 | 30.55123 | 113.16008 | 34145 ft | 410 kts | 268° |
| 2026-05-07 10:08 | 30.54850 | 113.09371 | 34150 ft | 410 kts | 268° |
| 2026-05-07 10:09 | 30.54574 | 113.02760 | 34149 ft | 410 kts | 268° |
| 2026-05-07 10:09 | 30.54295 | 112.96151 | 34149 ft | 410 kts | 268° |
| 2026-05-07 10:10 | 30.54012 | 112.89539 | 34149 ft | 410 kts | 268° |
| 2026-05-07 10:10 | 30.53728 | 112.82916 | 34153 ft | 410 kts | 268° |
| 2026-05-07 10:11 | 30.53440 | 112.76309 | 34154 ft | 411 kts | 268° |
| 2026-05-07 10:11 | 30.53148 | 112.69664 | 34157 ft | 410 kts | 268° |
| 2026-05-07 10:12 | 30.52853 | 112.63057 | 34163 ft | 410 kts | 268° |
| 2026-05-07 10:12 | 30.52553 | 112.56414 | 34159 ft | 410 kts | 268° |
| 2026-05-07 10:13 | 30.52251 | 112.49823 | 34159 ft | 410 kts | 268° |
| 2026-05-07 10:13 | 30.51944 | 112.43187 | 34171 ft | 410 kts | 268° |
| 2026-05-07 10:14 | 30.51636 | 112.36602 | 34171 ft | 410 kts | 268° |
| 2026-05-07 10:14 | 30.51325 | 112.30018 | 34172 ft | 410 kts | 268° |
| 2026-05-07 10:15 | 30.51007 | 112.23380 | 34168 ft | 410 kts | 268° |
| 2026-05-07 10:15 | 30.50689 | 112.16791 | 34171 ft | 410 kts | 268° |
| 2026-05-07 10:16 | 30.50367 | 112.10189 | 34176 ft | 410 kts | 268° |
| 2026-05-07 10:16 | 30.50041 | 112.03583 | 34181 ft | 410 kts | 268° |
| 2026-05-07 10:17 | 30.49709 | 111.96941 | 34192 ft | 410 kts | 268° |
| 2026-05-07 10:17 | 30.49376 | 111.90344 | 34184 ft | 411 kts | 268° |
| 2026-05-07 10:18 | 30.49038 | 111.83709 | 34179 ft | 411 kts | 268° |
| 2026-05-07 10:18 | 30.48697 | 111.77098 | 34194 ft | 411 kts | 267° |
| 2026-05-07 10:19 | 30.48351 | 111.70454 | 34200 ft | 411 kts | 267° |
| 2026-05-07 10:19 | 30.48001 | 111.63841 | 34173 ft | 412 kts | 267° |
| 2026-05-07 10:20 | 30.47643 | 111.57206 | 34188 ft | 414 kts | 267° |
| 2026-05-07 10:20 | 30.47264 | 111.50525 | 34201 ft | 414 kts | 266° |
| 2026-05-07 10:21 | 30.46672 | 111.44993 | 34201 ft | 414 kts | 263° |
| 2026-05-07 10:21 | 30.45634 | 111.37312 | 34212 ft | 414 kts | 263° |
| 2026-05-07 10:22 | 30.44725 | 111.30696 | 34216 ft | 414 kts | 262° |
| 2026-05-07 10:22 | 30.43957 | 111.25158 | 34220 ft | 414 kts | 262° |
| 2026-05-07 10:23 | 30.42890 | 111.17484 | 34216 ft | 414 kts | 262° |
| 2026-05-07 10:23 | 30.42121 | 111.11969 | 34234 ft | 414 kts | 262° |
| 2026-05-07 10:24 | 30.41197 | 111.05385 | 34223 ft | 414 kts | 262° |
| 2026-05-07 10:24 | 30.40273 | 110.98822 | 34239 ft | 414 kts | 262° |
| 2026-05-07 10:25 | 30.39338 | 110.92216 | 34234 ft | 414 kts | 262° |
| 2026-05-07 10:25 | 30.38401 | 110.85619 | 34235 ft | 414 kts | 262° |
| 2026-05-07 10:26 | 30.37460 | 110.79012 | 34246 ft | 414 kts | 262° |
| 2026-05-07 10:26 | 30.36519 | 110.72425 | 34227 ft | 416 kts | 262° |
| 2026-05-07 10:27 | 30.35570 | 110.65815 | 34234 ft | 417 kts | 262° |
| 2026-05-07 10:27 | 30.34613 | 110.59178 | 34254 ft | 418 kts | 262° |
| 2026-05-07 10:28 | 30.33650 | 110.52523 | 34232 ft | 418 kts | 262° |
| 2026-05-07 10:28 | 30.32686 | 110.45879 | 34251 ft | 418 kts | 261° |
| 2026-05-07 10:29 | 30.31721 | 110.39266 | 34249 ft | 417 kts | 261° |
| 2026-05-07 10:29 | 30.30747 | 110.32606 | 34237 ft | 417 kts | 261° |
| 2026-05-07 10:30 | 30.29291 | 110.22702 | 34240 ft | 418 kts | 261° |
| 2026-05-07 10:30 | 30.28310 | 110.16051 | 34248 ft | 416 kts | 261° |
| 2026-05-07 10:31 | 30.27331 | 110.09433 | 34240 ft | 418 kts | 261° |
| 2026-05-07 10:31 | 30.26346 | 110.02817 | 34227 ft | 419 kts | 261° |
| 2026-05-07 10:32 | 30.25351 | 109.96152 | 34235 ft | 418 kts | 261° |
| 2026-05-07 10:32 | 30.24358 | 109.89533 | 34230 ft | 418 kts | 261° |
| 2026-05-07 10:33 | 30.23361 | 109.82905 | 34217 ft | 420 kts | 261° |
| 2026-05-07 10:33 | 30.22353 | 109.76217 | 34225 ft | 420 kts | 261° |
| 2026-05-07 10:34 | 30.21343 | 109.69564 | 34223 ft | 421 kts | 261° |
| 2026-05-07 10:34 | 30.20305 | 109.62904 | 34217 ft | 422 kts | 259° |
| 2026-05-07 10:35 | 30.18851 | 109.56321 | 34218 ft | 423 kts | 255° |
| 2026-05-07 10:35 | 30.17133 | 109.49784 | 34221 ft | 422 kts | 255° |
| 2026-05-07 10:36 | 30.15420 | 109.43313 | 34222 ft | 422 kts | 255° |
| 2026-05-07 10:36 | 30.13700 | 109.36832 | 34214 ft | 422 kts | 255° |
| 2026-05-07 10:37 | 30.11969 | 109.30336 | 34216 ft | 423 kts | 255° |
| 2026-05-07 10:37 | 30.10231 | 109.23831 | 34220 ft | 422 kts | 255° |
| 2026-05-07 10:38 | 30.08494 | 109.17348 | 34221 ft | 422 kts | 255° |
| 2026-05-07 10:38 | 30.06739 | 109.10834 | 34219 ft | 423 kts | 255° |
| 2026-05-07 10:39 | 30.05003 | 109.04408 | 34218 ft | 421 kts | 255° |
| 2026-05-07 10:39 | 30.03249 | 108.97924 | 34218 ft | 421 kts | 255° |
| 2026-05-07 10:40 | 30.01534 | 108.91456 | 34218 ft | 422 kts | 255° |
| 2026-05-07 10:40 | 29.99836 | 108.84985 | 34213 ft | 422 kts | 255° |
| 2026-05-07 10:41 | 29.98125 | 108.78492 | 34222 ft | 421 kts | 255° |
| 2026-05-07 10:41 | 29.96415 | 108.72023 | 34223 ft | 420 kts | 255° |
| 2026-05-07 10:42 | 29.94720 | 108.65612 | 34228 ft | 421 kts | 255° |
| 2026-05-07 10:42 | 29.93004 | 108.59142 | 34216 ft | 420 kts | 255° |
| 2026-05-07 10:43 | 29.91290 | 108.52690 | 34213 ft | 420 kts | 255° |
| 2026-05-07 10:43 | 29.89576 | 108.46253 | 34215 ft | 420 kts | 255° |
| 2026-05-07 10:44 | 29.87864 | 108.39845 | 34218 ft | 417 kts | 255° |
| 2026-05-07 10:44 | 29.86151 | 108.33428 | 34205 ft | 416 kts | 255° |
| 2026-05-07 10:45 | 29.84456 | 108.27098 | 34206 ft | 415 kts | 255° |
| 2026-05-07 10:45 | 29.82745 | 108.20720 | 34208 ft | 415 kts | 255° |
| 2026-05-07 10:46 | 29.81029 | 108.14345 | 34196 ft | 415 kts | 255° |
| 2026-05-07 10:46 | 29.79325 | 108.08026 | 34197 ft | 415 kts | 255° |
| 2026-05-07 10:47 | 29.77602 | 108.01655 | 34196 ft | 415 kts | 255° |
| 2026-05-07 10:47 | 29.75888 | 107.95333 | 34202 ft | 414 kts | 255° |
| 2026-05-07 10:48 | 29.74178 | 107.89028 | 34199 ft | 414 kts | 255° |
| 2026-05-07 10:48 | 29.72411 | 107.82541 | 34179 ft | 414 kts | 255° |
| 2026-05-07 10:49 | 29.70683 | 107.76206 | 34184 ft | 414 kts | 255° |
| 2026-05-07 10:49 | 29.68952 | 107.69883 | 34175 ft | 414 kts | 255° |
| 2026-05-07 10:50 | 29.67498 | 107.63481 | 34189 ft | 413 kts | 261° |
| 2026-05-07 10:50 | 29.66923 | 107.56924 | 34183 ft | 412 kts | 269° |
| 2026-05-07 10:51 | 29.67242 | 107.50353 | 34179 ft | 412 kts | 277° |
| 2026-05-07 10:51 | 29.68455 | 107.43898 | 34178 ft | 413 kts | 284° |
| 2026-05-07 10:52 | 29.70052 | 107.37545 | 34185 ft | 412 kts | 282° |
| 2026-05-07 10:52 | 29.71388 | 107.31119 | 34179 ft | 412 kts | 282° |
| 2026-05-07 10:53 | 29.73260 | 107.24889 | 34178 ft | 416 kts | 290° |
| 2026-05-07 10:53 | 29.76000 | 107.18990 | 34178 ft | 420 kts | 298° |
| 2026-05-07 10:54 | 29.79589 | 107.13578 | 34181 ft | 426 kts | 306° |
| 2026-05-07 10:54 | 29.83863 | 107.08784 | 34197 ft | 429 kts | 311° |
| 2026-05-07 10:55 | 29.88282 | 107.04142 | 34197 ft | 429 kts | 311° |
| 2026-05-07 10:55 | 29.92719 | 106.99498 | 34188 ft | 429 kts | 311° |
| 2026-05-07 10:56 | 29.97140 | 106.94867 | 34185 ft | 429 kts | 311° |
| 2026-05-07 10:56 | 30.01558 | 106.90233 | 34183 ft | 429 kts | 311° |
| 2026-05-07 10:57 | 30.05958 | 106.85610 | 34183 ft | 429 kts | 311° |
| 2026-05-07 10:57 | 30.10400 | 106.80944 | 34182 ft | 429 kts | 311° |
| 2026-05-07 10:58 | 30.14811 | 106.76298 | 34177 ft | 430 kts | 311° |
| 2026-05-07 10:58 | 30.19231 | 106.71635 | 34177 ft | 429 kts | 311° |
| 2026-05-07 10:59 | 30.23643 | 106.66976 | 34173 ft | 429 kts | 311° |
| 2026-05-07 10:59 | 30.28059 | 106.62302 | 34171 ft | 429 kts | 311° |
| 2026-05-07 11:00 | 30.32443 | 106.57657 | 34173 ft | 429 kts | 311° |
| 2026-05-07 11:00 | 30.36855 | 106.52976 | 34166 ft | 429 kts | 311° |
| 2026-05-07 11:01 | 30.41265 | 106.48291 | 34165 ft | 429 kts | 311° |
| 2026-05-07 11:01 | 30.45671 | 106.43605 | 34168 ft | 429 kts | 311° |
| 2026-05-07 11:02 | 30.50066 | 106.38924 | 34164 ft | 428 kts | 311° |
| 2026-05-07 11:02 | 30.54429 | 106.34265 | 34159 ft | 428 kts | 310° |
| 2026-05-07 11:03 | 30.58550 | 106.29306 | 34161 ft | 425 kts | 305° |
| 2026-05-07 11:03 | 30.62218 | 106.23956 | 34158 ft | 421 kts | 300° |
| 2026-05-07 11:04 | 30.65473 | 106.18285 | 34155 ft | 420 kts | 298° |
| 2026-05-07 11:04 | 30.68604 | 106.12592 | 34151 ft | 418 kts | 296° |
| 2026-05-07 11:05 | 30.71026 | 106.06492 | 34155 ft | 412 kts | 285° |
| 2026-05-07 11:05 | 30.72365 | 106.00056 | 34155 ft | 409 kts | 276° |
| 2026-05-07 11:06 | 30.72626 | 105.93452 | 34160 ft | 410 kts | 266° |
| 2026-05-07 11:06 | 30.72064 | 105.87980 | 34159 ft | 410 kts | 262° |
| 2026-05-07 11:07 | 30.71015 | 105.80299 | 34157 ft | 410 kts | 261° |
| 2026-05-07 11:07 | 30.70095 | 105.73745 | 34146 ft | 410 kts | 261° |
| 2026-05-07 11:08 | 30.69786 | 105.71563 | 33884 ft | 412 kts | 261° |
| 2026-05-07 11:08 | 30.69164 | 105.67177 | 32864 ft | 417 kts | 261° |
| 2026-05-07 11:08 | 30.68844 | 105.64922 | 32379 ft | 417 kts | 261° |
| 2026-05-07 11:08 | 30.68210 | 105.60492 | 31435 ft | 420 kts | 261° |
| 2026-05-07 11:09 | 30.67726 | 105.57114 | 30697 ft | 423 kts | 261° |
| 2026-05-07 11:09 | 30.67403 | 105.54872 | 30201 ft | 425 kts | 261° |
| 2026-05-07 11:09 | 30.66914 | 105.51472 | 29359 ft | 428 kts | 261° |
| 2026-05-07 11:09 | 30.66430 | 105.48120 | 28566 ft | 429 kts | 261° |
| 2026-05-07 11:10 | 30.65934 | 105.44687 | 27804 ft | 430 kts | 261° |
| 2026-05-07 11:10 | 30.65436 | 105.41253 | 27051 ft | 431 kts | 261° |
| 2026-05-07 11:10 | 30.64938 | 105.37824 | 26501 ft | 428 kts | 261° |
| 2026-05-07 11:10 | 30.64445 | 105.34430 | 26030 ft | 422 kts | 261° |
| 2026-05-07 11:11 | 30.63956 | 105.31073 | 25473 ft | 419 kts | 261° |
| 2026-05-07 11:11 | 30.63468 | 105.27740 | 24984 ft | 416 kts | 260° |
| 2026-05-07 11:11 | 30.62753 | 105.24491 | 24466 ft | 415 kts | 251° |
| 2026-05-07 11:11 | 30.61572 | 105.21446 | 23978 ft | 413 kts | 243° |
| 2026-05-07 11:12 | 30.59993 | 105.18651 | 23469 ft | 414 kts | 234° |
| 2026-05-07 11:12 | 30.58147 | 105.16087 | 22931 ft | 412 kts | 232° |
| 2026-05-07 11:12 | 30.56268 | 105.13565 | 22413 ft | 409 kts | 231° |
| 2026-05-07 11:12 | 30.54429 | 105.11113 | 21923 ft | 406 kts | 231° |
| 2026-05-07 11:13 | 30.52579 | 105.08647 | 21464 ft | 403 kts | 231° |
| 2026-05-07 11:13 | 30.50745 | 105.06201 | 20996 ft | 400 kts | 231° |
| 2026-05-07 11:13 | 30.48923 | 105.03770 | 20539 ft | 397 kts | 231° |
| 2026-05-07 11:13 | 30.47114 | 105.01356 | 20082 ft | 395 kts | 231° |
| 2026-05-07 11:14 | 30.45316 | 104.98959 | 19627 ft | 393 kts | 231° |
| 2026-05-07 11:14 | 30.43523 | 104.96568 | 19177 ft | 391 kts | 231° |
| 2026-05-07 11:14 | 30.41740 | 104.94189 | 18709 ft | 389 kts | 231° |
| 2026-05-07 11:14 | 30.40126 | 104.91685 | 18255 ft | 386 kts | 238° |
| 2026-05-07 11:15 | 30.38834 | 104.89010 | 17762 ft | 383 kts | 245° |
| 2026-05-07 11:15 | 30.37840 | 104.86160 | 17297 ft | 380 kts | 251° |
| 2026-05-07 11:15 | 30.37001 | 104.83256 | 16846 ft | 378 kts | 252° |
| 2026-05-07 11:15 | 30.36191 | 104.80366 | 16386 ft | 376 kts | 252° |
| 2026-05-07 11:16 | 30.35385 | 104.77489 | 15929 ft | 375 kts | 252° |
| 2026-05-07 11:16 | 30.34578 | 104.74621 | 15487 ft | 374 kts | 252° |
| 2026-05-07 11:16 | 30.33769 | 104.71755 | 15054 ft | 373 kts | 252° |
| 2026-05-07 11:16 | 30.32958 | 104.68893 | 14604 ft | 372 kts | 252° |
| 2026-05-07 11:17 | 30.32152 | 104.66055 | 14181 ft | 371 kts | 252° |
| 2026-05-07 11:17 | 30.31345 | 104.63212 | 13711 ft | 370 kts | 252° |
| 2026-05-07 11:17 | 30.30537 | 104.60381 | 13200 ft | 370 kts | 252° |
| 2026-05-07 11:17 | 30.29730 | 104.57555 | 12793 ft | 367 kts | 253° |
| 2026-05-07 11:18 | 30.29182 | 104.54692 | 12380 ft | 364 kts | 268° |
| 2026-05-07 11:18 | 30.29491 | 104.51816 | 11973 ft | 360 kts | 289° |
| 2026-05-07 11:18 | 30.30606 | 104.49248 | 11570 ft | 355 kts | 308° |
| 2026-05-07 11:18 | 30.32349 | 104.47275 | 11133 ft | 351 kts | 326° |
| 2026-05-07 11:19 | 30.34400 | 104.45844 | 10874 ft | 343 kts | 331° |
| 2026-05-07 11:19 | 30.36430 | 104.44504 | 10757 ft | 330 kts | 332° |
| 2026-05-07 11:19 | 30.38388 | 104.43209 | 10638 ft | 317 kts | 332° |
| 2026-05-07 11:19 | 30.40265 | 104.41957 | 10526 ft | 305 kts | 332° |
| 2026-05-07 11:20 | 30.42071 | 104.40746 | 10422 ft | 293 kts | 332° |
| 2026-05-07 11:20 | 30.43804 | 104.39581 | 10320 ft | 282 kts | 332° |
| 2026-05-07 11:20 | 30.45473 | 104.38455 | 10230 ft | 273 kts | 332° |
| 2026-05-07 11:20 | 30.47098 | 104.37357 | 10144 ft | 268 kts | 332° |
| 2026-05-07 11:21 | 30.48705 | 104.36270 | 10049 ft | 266 kts | 332° |
| 2026-05-07 11:21 | 30.50310 | 104.35183 | 9706 ft | 267 kts | 332° |
| 2026-05-07 11:21 | 30.51916 | 104.34094 | 9395 ft | 267 kts | 332° |
| 2026-05-07 11:21 | 30.53517 | 104.33009 | 9084 ft | 266 kts | 332° |
| 2026-05-07 11:22 | 30.55154 | 104.31900 | 8794 ft | 264 kts | 332° |
| 2026-05-07 11:22 | 30.56742 | 104.30824 | 8503 ft | 264 kts | 332° |
| 2026-05-07 11:22 | 30.58328 | 104.29746 | 8213 ft | 263 kts | 332° |
| 2026-05-07 11:22 | 30.59910 | 104.28670 | 7930 ft | 262 kts | 332° |
| 2026-05-07 11:23 | 30.61404 | 104.27501 | 7630 ft | 264 kts | 319° |
| 2026-05-07 11:23 | 30.62539 | 104.25813 | 7336 ft | 267 kts | 300° |
| 2026-05-07 11:23 | 30.63295 | 104.23834 | 7067 ft | 267 kts | 294° |
| 2026-05-07 11:23 | 30.63981 | 104.21822 | 6787 ft | 267 kts | 294° |
| 2026-05-07 11:24 | 30.64664 | 104.19805 | 6504 ft | 268 kts | 294° |
| 2026-05-07 11:24 | 30.65357 | 104.17794 | 6207 ft | 268 kts | 294° |
| 2026-05-07 11:24 | 30.66208 | 104.15883 | 5875 ft | 265 kts | 314° |
| 2026-05-07 11:24 | 30.67672 | 104.14664 | 5571 ft | 258 kts | 342° |
| 2026-05-07 11:25 | 30.69418 | 104.14389 | 5271 ft | 253 kts | 9° |
| 2026-05-07 11:25 | 30.71086 | 104.14974 | 5010 ft | 249 kts | 24° |
| 2026-05-07 11:25 | 30.72652 | 104.15736 | 4941 ft | 237 kts | 24° |
| 2026-05-07 11:25 | 30.74112 | 104.16447 | 4932 ft | 226 kts | 24° |
| 2026-05-07 11:26 | 30.75567 | 104.17146 | 4939 ft | 225 kts | 25° |
| 2026-05-07 11:26 | 30.77016 | 104.17838 | 4960 ft | 225 kts | 24° |
| 2026-05-07 11:26 | 30.78463 | 104.18527 | 4979 ft | 225 kts | 24° |
| 2026-05-07 11:26 | 30.79922 | 104.19216 | 4996 ft | 225 kts | 24° |
| 2026-05-07 11:27 | 30.81374 | 104.19899 | 4994 ft | 225 kts | 24° |
| 2026-05-07 11:27 | 30.82817 | 104.20578 | 4994 ft | 223 kts | 24° |
| 2026-05-07 11:27 | 30.84260 | 104.21261 | 4995 ft | 223 kts | 24° |
| 2026-05-07 11:27 | 30.85668 | 104.21923 | 5015 ft | 209 kts | 24° |
| 2026-05-07 11:28 | 30.86959 | 104.22527 | 4983 ft | 192 kts | 25° |
| 2026-05-07 11:28 | 30.88167 | 104.23098 | 4980 ft | 184 kts | 24° |
| 2026-05-07 11:28 | 30.89356 | 104.23663 | 4983 ft | 185 kts | 24° |
| 2026-05-07 11:28 | 30.90582 | 104.24101 | 4983 ft | 186 kts | 6° |
| 2026-05-07 11:29 | 30.91865 | 104.23856 | 4988 ft | 191 kts | 339° |
| 2026-05-07 11:29 | 30.92937 | 104.22912 | 4998 ft | 198 kts | 311° |
| 2026-05-07 11:29 | 30.93601 | 104.21477 | 5006 ft | 204 kts | 296° |
| 2026-05-07 11:29 | 30.94120 | 104.19963 | 5003 ft | 204 kts | 295° |
| 2026-05-07 11:30 | 30.94639 | 104.18397 | 5000 ft | 203 kts | 295° |
| 2026-05-07 11:30 | 30.95150 | 104.16884 | 4997 ft | 203 kts | 295° |
| 2026-05-07 11:30 | 30.95662 | 104.15344 | 4997 ft | 204 kts | 289° |
| 2026-05-07 11:30 | 30.95686 | 104.13685 | 4982 ft | 210 kts | 253° |
| 2026-05-07 11:31 | 30.94870 | 104.12302 | 5005 ft | 209 kts | 218° |
| 2026-05-07 11:31 | 30.93629 | 104.11432 | 5012 ft | 208 kts | 204° |
| 2026-05-07 11:31 | 30.92306 | 104.10763 | 5005 ft | 207 kts | 200° |
| 2026-05-07 11:31 | 30.90964 | 104.10140 | 5004 ft | 207 kts | 199° |
| 2026-05-07 11:32 | 30.88280 | 104.08914 | 4994 ft | 207 kts | 199° |
| 2026-05-07 11:32 | 30.86954 | 104.08304 | 4985 ft | 208 kts | 199° |
| 2026-05-07 11:32 | 30.85591 | 104.07673 | 4980 ft | 207 kts | 199° |
| 2026-05-07 11:33 | 30.84264 | 104.07056 | 4830 ft | 208 kts | 199° |
| 2026-05-07 11:33 | 30.82922 | 104.06430 | 4559 ft | 207 kts | 199° |
| 2026-05-07 11:33 | 30.81590 | 104.05807 | 4331 ft | 206 kts | 199° |
| 2026-05-07 11:33 | 30.80263 | 104.05187 | 4104 ft | 205 kts | 199° |
| 2026-05-07 11:34 | 30.78943 | 104.04569 | 3945 ft | 204 kts | 199° |
| 2026-05-07 11:34 | 30.77624 | 104.03951 | 3933 ft | 205 kts | 199° |
| 2026-05-07 11:34 | 30.76295 | 104.03328 | 3935 ft | 206 kts | 199° |
| 2026-05-07 11:34 | 30.74955 | 104.02700 | 3956 ft | 205 kts | 199° |
| 2026-05-07 11:35 | 30.73629 | 104.02079 | 3937 ft | 204 kts | 199° |
| 2026-05-07 11:35 | 30.72291 | 104.01454 | 3933 ft | 204 kts | 200° |
| 2026-05-07 11:35 | 30.70971 | 104.00836 | 3923 ft | 205 kts | 200° |
| 2026-05-07 11:35 | 30.69650 | 104.00217 | 3748 ft | 203 kts | 200° |
| 2026-05-07 11:36 | 30.68343 | 103.99606 | 3484 ft | 203 kts | 200° |
| 2026-05-07 11:36 | 30.67032 | 103.98990 | 3221 ft | 203 kts | 199° |
| 2026-05-07 11:36 | 30.65721 | 103.98377 | 2969 ft | 202 kts | 199° |
| 2026-05-07 11:36 | 30.64448 | 103.97781 | 2712 ft | 192 kts | 199° |
| 2026-05-07 11:37 | 30.63245 | 103.97220 | 2468 ft | 178 kts | 200° |
| 2026-05-07 11:37 | 30.62131 | 103.96701 | 2242 ft | 167 kts | 202° |
| 2026-05-07 11:37 | 30.61074 | 103.96203 | 2012 ft | 162 kts | 203° |
| 2026-05-07 11:37 | 30.60047 | 103.95718 | 1796 ft | 160 kts | 203° |
| 2026-05-07 11:38 | 30.59019 | 103.95246 | 1672 ft | 152 kts | 202° |
| 2026-05-07 11:38 | 30.58253 | 103.94887 | 1663 ft | 81 kts | 201° |
| 2026-05-07 11:38 | 30.57971 | 103.94751 | 1671 ft | 16 kts | 203° |
| 2026-05-07 11:38 | 30.57798 | 103.94675 | 1669 ft | 33 kts | 202° |
| 2026-05-07 11:39 | 30.57581 | 103.94612 | 1667 ft | 32 kts | 184° |
| 2026-05-07 11:39 | 30.57376 | 103.94640 | 1663 ft | 26 kts | 150° |
| 2026-05-07 11:39 | 30.57306 | 103.94745 | 1664 ft | 18 kts | 110° |
| 2026-05-07 11:40 | 30.57306 | 103.94747 | 1663 ft | 18 kts | 110° |
| 2026-05-07 11:41 | 30.57271 | 103.94849 | 1664 ft | 17 kts | 111° |
| 2026-05-07 11:41 | 30.57260 | 103.94907 | 1664 ft | 2 kts | 84° |
| 2026-05-07 11:41 | 30.57260 | 103.94931 | 1655 ft | 4 kts | 92° |
| 2026-05-07 11:41 | 30.57263 | 103.94976 | 1663 ft | 7 kts | 83° |
| 2026-05-07 11:42 | 30.57267 | 103.95003 | 1658 ft | 0 kts | 80° |